Chambers, Louisiana
Current Conditions -  °F | °C
As of 6:53 PM on Monday 22 Dec 2014 (Local Time) from KAEX Reporting Station
Clear Clear  
Wind Chill: 66°   Ceiling: Unl
Heat Index: 66°   Visibility: 10mi
Dew Point: 60°   Wind: 6mph
Humidity: 81%   Direction: 170°S
Pressure: 29.62"   Gusts: NA
Location:  31.1282°N, 92.3823°W
Report Text: KAEX 230053Z 17005KT 10SM CLR 19/16 A2962 RMK AO2 SLP033 T01890156
Loading
Personal Weather Stations






























Interactive Weather Map New forecast layout! Learn more

10-Day Weather Forecast

Advertisements
Track Severe Weather on mobile